sensor_id;sensor_type;location;lat;lon;timestamp;temperature;humidity
68943;DHT22;60852;52.190;4.422;2023-07-31T00:00:14;18.16;88.27
68943;DHT22;60852;52.190;4.422;2023-07-31T00:02:39;18.14;88.56
68943;DHT22;60852;52.190;4.422;2023-07-31T00:05:05;18.20;88.45
68943;DHT22;60852;52.190;4.422;2023-07-31T00:07:32;18.20;88.31
68943;DHT22;60852;52.190;4.422;2023-07-31T00:09:57;18.14;88.55
68943;DHT22;60852;52.190;4.422;2023-07-31T00:12:23;18.13;88.29
68943;DHT22;60852;52.190;4.422;2023-07-31T00:14:49;18.07;88.34
68943;DHT22;60852;52.190;4.422;2023-07-31T00:17:14;18.03;88.26
68943;DHT22;60852;52.190;4.422;2023-07-31T00:19:40;18.04;88.22
68943;DHT22;60852;52.190;4.422;2023-07-31T00:22:05;17.99;88.07
68943;DHT22;60852;52.190;4.422;2023-07-31T00:24:31;18.00;88.36
68943;DHT22;60852;52.190;4.422;2023-07-31T00:26:56;18.01;88.17
68943;DHT22;60852;52.190;4.422;2023-07-31T00:29:22;18.04;88.07
68943;DHT22;60852;52.190;4.422;2023-07-31T00:31:47;17.92;87.94
68943;DHT22;60852;52.190;4.422;2023-07-31T00:34:13;18.00;88.19
68943;DHT22;60852;52.190;4.422;2023-07-31T00:36:38;18.03;88.12
68943;DHT22;60852;52.190;4.422;2023-07-31T00:39:04;18.16;88.07
68943;DHT22;60852;52.190;4.422;2023-07-31T00:41:30;18.18;88.09
68943;DHT22;60852;52.190;4.422;2023-07-31T00:43:55;18.20;88.05
68943;DHT22;60852;52.190;4.422;2023-07-31T00:46:21;18.21;87.89
68943;DHT22;60852;52.190;4.422;2023-07-31T00:48:46;18.24;87.78
68943;DHT22;60852;52.190;4.422;2023-07-31T00:51:12;18.27;87.67
68943;DHT22;60852;52.190;4.422;2023-07-31T00:53:40;18.26;87.55
68943;DHT22;60852;52.190;4.422;2023-07-31T00:56:06;18.29;87.44
68943;DHT22;60852;52.190;4.422;2023-07-31T00:58:31;18.30;87.36
68943;DHT22;60852;52.190;4.422;2023-07-31T01:00:57;18.24;87.55
68943;DHT22;60852;52.190;4.422;2023-07-31T01:03:23;18.20;87.48
68943;DHT22;60852;52.190;4.422;2023-07-31T01:08:41;18.10;87.83
68943;DHT22;60852;52.190;4.422;2023-07-31T01:11:18;18.14;87.99
68943;DHT22;60852;52.190;4.422;2023-07-31T01:13:45;18.18;87.93
68943;DHT22;60852;52.190;4.422;2023-07-31T01:16:11;18.18;87.79
68943;DHT22;60852;52.190;4.422;2023-07-31T01:18:37;18.23;87.71
68943;DHT22;60852;52.190;4.422;2023-07-31T01:21:26;18.23;87.69
68943;DHT22;60852;52.190;4.422;2023-07-31T01:27:10;18.21;87.21
68943;DHT22;60852;52.190;4.422;2023-07-31T01:32:03;18.24;86.20
68943;DHT22;60852;52.190;4.422;2023-07-31T01:34:32;18.21;85.74
68943;DHT22;60852;52.190;4.422;2023-07-31T01:36:57;18.24;85.94
68943;DHT22;60852;52.190;4.422;2023-07-31T01:39:25;18.31;85.89
68943;DHT22;60852;52.190;4.422;2023-07-31T01:41:51;18.36;85.72
68943;DHT22;60852;52.190;4.422;2023-07-31T01:44:16;18.36;85.48
68943;DHT22;60852;52.190;4.422;2023-07-31T01:46:42;18.37;85.12
68943;DHT22;60852;52.190;4.422;2023-07-31T01:49:07;18.33;85.36
68943;DHT22;60852;52.190;4.422;2023-07-31T01:51:33;18.30;84.45
68943;DHT22;60852;52.190;4.422;2023-07-31T01:54:02;18.29;84.45
68943;DHT22;60852;52.190;4.422;2023-07-31T01:56:28;18.36;84.76
68943;DHT22;60852;52.190;4.422;2023-07-31T01:58:53;18.37;84.63
68943;DHT22;60852;52.190;4.422;2023-07-31T02:01:19;18.31;84.56
68943;DHT22;60852;52.190;4.422;2023-07-31T02:03:44;18.30;84.41
68943;DHT22;60852;52.190;4.422;2023-07-31T02:06:10;18.37;84.44
68943;DHT22;60852;52.190;4.422;2023-07-31T02:08:35;18.48;84.31
68943;DHT22;60852;52.190;4.422;2023-07-31T02:11:01;18.41;83.90
68943;DHT22;60852;52.190;4.422;2023-07-31T02:13:26;18.40;83.77
68943;DHT22;60852;52.190;4.422;2023-07-31T02:15:51;18.40;83.65
68943;DHT22;60852;52.190;4.422;2023-07-31T02:18:17;18.41;83.84
68943;DHT22;60852;52.190;4.422;2023-07-31T02:20:42;18.36;83.85
68943;DHT22;60852;52.190;4.422;2023-07-31T02:23:11;18.34;83.61
68943;DHT22;60852;52.190;4.422;2023-07-31T02:25:37;18.41;83.78
68943;DHT22;60852;52.190;4.422;2023-07-31T02:28:02;18.47;83.68
68943;DHT22;60852;52.190;4.422;2023-07-31T02:30:27;18.47;83.49
68943;DHT22;60852;52.190;4.422;2023-07-31T02:32:53;18.45;83.77
68943;DHT22;60852;52.190;4.422;2023-07-31T02:35:18;18.50;83.44
68943;DHT22;60852;52.190;4.422;2023-07-31T02:37:44;18.48;83.43
68943;DHT22;60852;52.190;4.422;2023-07-31T02:40:10;18.51;83.35
68943;DHT22;60852;52.190;4.422;2023-07-31T02:42:35;18.45;82.87
68943;DHT22;60852;52.190;4.422;2023-07-31T02:45:01;18.50;82.96
68943;DHT22;60852;52.190;4.422;2023-07-31T02:47:26;18.52;83.06
68943;DHT22;60852;52.190;4.422;2023-07-31T02:49:52;18.48;83.07
68943;DHT22;60852;52.190;4.422;2023-07-31T02:52:17;18.51;82.96
68943;DHT22;60852;52.190;4.422;2023-07-31T02:54:43;18.52;83.07
68943;DHT22;60852;52.190;4.422;2023-07-31T02:57:08;18.57;83.09
68943;DHT22;60852;52.190;4.422;2023-07-31T02:59:34;18.57;83.07
68943;DHT22;60852;52.190;4.422;2023-07-31T03:01:59;18.64;83.34
68943;DHT22;60852;52.190;4.422;2023-07-31T03:04:24;18.60;83.15
68943;DHT22;60852;52.190;4.422;2023-07-31T03:06:50;18.52;83.10
68943;DHT22;60852;52.190;4.422;2023-07-31T03:09:15;18.58;83.23
68943;DHT22;60852;52.190;4.422;2023-07-31T03:11:41;18.64;83.18
68943;DHT22;60852;52.190;4.422;2023-07-31T03:14:06;18.58;83.26
68943;DHT22;60852;52.190;4.422;2023-07-31T03:16:32;18.57;83.32
68943;DHT22;60852;52.190;4.422;2023-07-31T03:18:57;18.51;83.49
68943;DHT22;60852;52.190;4.422;2023-07-31T03:21:23;18.47;83.98
68943;DHT22;60852;52.190;4.422;2023-07-31T03:23:48;18.50;84.29
68943;DHT22;60852;52.190;4.422;2023-07-31T03:26:14;18.47;84.29
68943;DHT22;60852;52.190;4.422;2023-07-31T03:28:39;18.47;84.57
68943;DHT22;60852;52.190;4.422;2023-07-31T03:31:05;18.38;84.97
68943;DHT22;60852;52.190;4.422;2023-07-31T03:33:30;18.30;85.11
68943;DHT22;60852;52.190;4.422;2023-07-31T03:35:56;18.26;85.35
68943;DHT22;60852;52.190;4.422;2023-07-31T03:38:22;18.30;85.51
68943;DHT22;60852;52.190;4.422;2023-07-31T03:40:47;18.23;85.72
68943;DHT22;60852;52.190;4.422;2023-07-31T03:43:13;18.26;85.78
68943;DHT22;60852;52.190;4.422;2023-07-31T03:45:38;18.26;85.73
68943;DHT22;60852;52.190;4.422;2023-07-31T03:48:04;18.27;85.73
68943;DHT22;60852;52.190;4.422;2023-07-31T03:50:30;18.27;85.91
68943;DHT22;60852;52.190;4.422;2023-07-31T03:52:56;18.24;86.41
68943;DHT22;60852;52.190;4.422;2023-07-31T03:55:21;18.21;86.51
68943;DHT22;60852;52.190;4.422;2023-07-31T03:57:50;18.14;86.84
68943;DHT22;60852;52.190;4.422;2023-07-31T04:00:15;18.13;87.03
68943;DHT22;60852;52.190;4.422;2023-07-31T04:02:40;18.06;87.07
68943;DHT22;60852;52.190;4.422;2023-07-31T04:05:07;17.97;87.25
68943;DHT22;60852;52.190;4.422;2023-07-31T04:07:33;18.00;87.49
68943;DHT22;60852;52.190;4.422;2023-07-31T04:09:59;18.00;87.63
68943;DHT22;60852;52.190;4.422;2023-07-31T04:12:25;17.99;87.83
68943;DHT22;60852;52.190;4.422;2023-07-31T04:14:51;18.03;87.92
68943;DHT22;60852;52.190;4.422;2023-07-31T04:17:18;18.00;88.16
68943;DHT22;60852;52.190;4.422;2023-07-31T04:19:43;17.94;88.50
68943;DHT22;60852;52.190;4.422;2023-07-31T04:22:09;17.92;88.79
68943;DHT22;60852;52.190;4.422;2023-07-31T04:24:34;17.94;88.87
68943;DHT22;60852;52.190;4.422;2023-07-31T04:26:59;17.92;89.12
68943;DHT22;60852;52.190;4.422;2023-07-31T04:29:25;17.92;89.35
68943;DHT22;60852;52.190;4.422;2023-07-31T04:31:50;17.80;89.06
68943;DHT22;60852;52.190;4.422;2023-07-31T04:34:16;17.85;89.19
68943;DHT22;60852;52.190;4.422;2023-07-31T04:36:41;17.80;89.47
68943;DHT22;60852;52.190;4.422;2023-07-31T04:39:07;17.83;89.29
68943;DHT22;60852;52.190;4.422;2023-07-31T04:41:32;17.86;89.47
68943;DHT22;60852;52.190;4.422;2023-07-31T04:43:58;17.79;89.81
68943;DHT22;60852;52.190;4.422;2023-07-31T04:46:23;17.82;89.84
68943;DHT22;60852;52.190;4.422;2023-07-31T04:48:49;17.78;90.18
68943;DHT22;60852;52.190;4.422;2023-07-31T04:51:14;17.85;90.12
68943;DHT22;60852;52.190;4.422;2023-07-31T04:53:40;17.80;89.93
68943;DHT22;60852;52.190;4.422;2023-07-31T04:56:05;17.85;90.19
68943;DHT22;60852;52.190;4.422;2023-07-31T04:58:31;17.83;90.15
68943;DHT22;60852;52.190;4.422;2023-07-31T05:00:56;17.87;90.25
68943;DHT22;60852;52.190;4.422;2023-07-31T05:03:22;17.87;90.27
68943;DHT22;60852;52.190;4.422;2023-07-31T05:05:47;17.90;90.18
68943;DHT22;60852;52.190;4.422;2023-07-31T05:08:13;17.93;90.36
68943;DHT22;60852;52.190;4.422;2023-07-31T05:10:38;17.90;90.41
68943;DHT22;60852;52.190;4.422;2023-07-31T05:13:04;17.92;90.42
68943;DHT22;60852;52.190;4.422;2023-07-31T05:15:30;17.96;90.77
68943;DHT22;60852;52.190;4.422;2023-07-31T05:17:56;18.00;90.54
68943;DHT22;60852;52.190;4.422;2023-07-31T05:20:21;17.94;90.66
68943;DHT22;60852;52.190;4.422;2023-07-31T05:22:47;17.99;90.75
68943;DHT22;60852;52.190;4.422;2023-07-31T05:25:12;18.01;90.70
68943;DHT22;60852;52.190;4.422;2023-07-31T05:27:38;18.04;90.72
68943;DHT22;60852;52.190;4.422;2023-07-31T05:30:04;18.01;90.58
68943;DHT22;60852;52.190;4.422;2023-07-31T05:32:30;18.07;90.67
68943;DHT22;60852;52.190;4.422;2023-07-31T05:34:56;17.99;90.76
68943;DHT22;60852;52.190;4.422;2023-07-31T05:37:22;17.94;91.00
68943;DHT22;60852;52.190;4.422;2023-07-31T05:39:47;17.96;91.04
68943;DHT22;60852;52.190;4.422;2023-07-31T05:42:13;18.01;90.95
68943;DHT22;60852;52.190;4.422;2023-07-31T05:44:38;18.01;90.93
68943;DHT22;60852;52.190;4.422;2023-07-31T05:47:04;18.00;91.20
68943;DHT22;60852;52.190;4.422;2023-07-31T05:49:29;18.04;90.93
68943;DHT22;60852;52.190;4.422;2023-07-31T05:51:55;18.01;91.05
68943;DHT22;60852;52.190;4.422;2023-07-31T05:54:21;18.06;90.94
68943;DHT22;60852;52.190;4.422;2023-07-31T05:56:46;18.06;90.78
68943;DHT22;60852;52.190;4.422;2023-07-31T05:59:12;18.07;90.96
68943;DHT22;60852;52.190;4.422;2023-07-31T06:01:39;18.11;90.94
68943;DHT22;60852;52.190;4.422;2023-07-31T06:04:04;18.07;90.79
68943;DHT22;60852;52.190;4.422;2023-07-31T06:06:30;18.13;90.95
68943;DHT22;60852;52.190;4.422;2023-07-31T06:08:56;18.13;90.90
68943;DHT22;60852;52.190;4.422;2023-07-31T06:11:22;18.23;90.87
68943;DHT22;60852;52.190;4.422;2023-07-31T06:13:47;18.24;90.80
68943;DHT22;60852;52.190;4.422;2023-07-31T06:16:14;18.18;90.60
68943;DHT22;60852;52.190;4.422;2023-07-31T06:18:41;18.24;90.80
68943;DHT22;60852;52.190;4.422;2023-07-31T06:21:07;18.26;90.61
68943;DHT22;60852;52.190;4.422;2023-07-31T06:23:32;18.27;90.73
68943;DHT22;60852;52.190;4.422;2023-07-31T06:25:58;18.26;90.64
68943;DHT22;60852;52.190;4.422;2023-07-31T06:28:28;18.29;90.76
68943;DHT22;60852;52.190;4.422;2023-07-31T06:30:59;18.31;90.61
68943;DHT22;60852;52.190;4.422;2023-07-31T06:33:25;18.29;90.77
68943;DHT22;60852;52.190;4.422;2023-07-31T06:35:51;18.31;90.87
68943;DHT22;60852;52.190;4.422;2023-07-31T06:38:22;18.27;90.58
68943;DHT22;60852;52.190;4.422;2023-07-31T06:40:48;18.30;90.77
68943;DHT22;60852;52.190;4.422;2023-07-31T06:43:14;18.30;90.85
68943;DHT22;60852;52.190;4.422;2023-07-31T06:45:39;18.33;90.72
68943;DHT22;60852;52.190;4.422;2023-07-31T06:48:05;18.34;90.62
68943;DHT22;60852;52.190;4.422;2023-07-31T06:50:31;18.37;90.90
68943;DHT22;60852;52.190;4.422;2023-07-31T06:52:57;18.43;90.79
68943;DHT22;60852;52.190;4.422;2023-07-31T06:55:23;18.48;90.59
68943;DHT22;60852;52.190;4.422;2023-07-31T06:57:51;18.48;90.45
68943;DHT22;60852;52.190;4.422;2023-07-31T07:00:17;18.50;90.40
68943;DHT22;60852;52.190;4.422;2023-07-31T07:02:43;18.52;90.64
68943;DHT22;60852;52.190;4.422;2023-07-31T07:05:09;18.51;90.38
68943;DHT22;60852;52.190;4.422;2023-07-31T07:07:36;18.48;90.63
68943;DHT22;60852;52.190;4.422;2023-07-31T07:10:02;18.44;90.51
68943;DHT22;60852;52.190;4.422;2023-07-31T07:12:30;18.51;90.71
68943;DHT22;60852;52.190;4.422;2023-07-31T07:14:56;18.50;90.68
68943;DHT22;60852;52.190;4.422;2023-07-31T07:17:23;18.51;90.82
68943;DHT22;60852;52.190;4.422;2023-07-31T07:19:48;18.52;90.93
68943;DHT22;60852;52.190;4.422;2023-07-31T07:22:14;18.55;90.76
68943;DHT22;60852;52.190;4.422;2023-07-31T07:24:40;18.60;90.79
68943;DHT22;60852;52.190;4.422;2023-07-31T07:27:06;18.65;90.67
68943;DHT22;60852;52.190;4.422;2023-07-31T07:29:34;18.60;90.45
68943;DHT22;60852;52.190;4.422;2023-07-31T07:31:59;18.57;90.48
68943;DHT22;60852;52.190;4.422;2023-07-31T07:34:27;18.54;90.74
68943;DHT22;60852;52.190;4.422;2023-07-31T07:36:52;18.62;90.75
68943;DHT22;60852;52.190;4.422;2023-07-31T07:39:18;18.57;90.78
68943;DHT22;60852;52.190;4.422;2023-07-31T07:41:43;18.69;90.83
68943;DHT22;60852;52.190;4.422;2023-07-31T07:44:09;18.68;90.89
68943;DHT22;60852;52.190;4.422;2023-07-31T07:46:34;18.65;90.76
68943;DHT22;60852;52.190;4.422;2023-07-31T07:49:00;18.62;90.69
68943;DHT22;60852;52.190;4.422;2023-07-31T07:51:25;18.55;90.96
68943;DHT22;60852;52.190;4.422;2023-07-31T07:53:51;18.68;91.08
68943;DHT22;60852;52.190;4.422;2023-07-31T07:56:16;18.78;90.89
68943;DHT22;60852;52.190;4.422;2023-07-31T07:58:42;18.76;90.86
68943;DHT22;60852;52.190;4.422;2023-07-31T08:01:07;18.71;90.68
68943;DHT22;60852;52.190;4.422;2023-07-31T08:03:33;18.84;90.66
68943;DHT22;60852;52.190;4.422;2023-07-31T08:05:59;18.89;90.62
68943;DHT22;60852;52.190;4.422;2023-07-31T08:08:25;18.84;90.68
68943;DHT22;60852;52.190;4.422;2023-07-31T08:10:51;18.79;90.58
68943;DHT22;60852;52.190;4.422;2023-07-31T08:13:16;18.88;90.61
68943;DHT22;60852;52.190;4.422;2023-07-31T08:15:42;19.02;90.85
68943;DHT22;60852;52.190;4.422;2023-07-31T08:18:08;19.06;90.05
68943;DHT22;60852;52.190;4.422;2023-07-31T08:20:34;19.08;90.27
68943;DHT22;60852;52.190;4.422;2023-07-31T08:22:59;18.89;90.12
68943;DHT22;60852;52.190;4.422;2023-07-31T08:25:25;18.87;90.39
68943;DHT22;60852;52.190;4.422;2023-07-31T08:27:50;18.99;90.31
68943;DHT22;60852;52.190;4.422;2023-07-31T08:30:19;19.13;90.31
68943;DHT22;60852;52.190;4.422;2023-07-31T08:32:44;19.20;89.77
68943;DHT22;60852;52.190;4.422;2023-07-31T08:35:10;19.29;89.63
68943;DHT22;60852;52.190;4.422;2023-07-31T08:37:38;19.24;89.39
68943;DHT22;60852;52.190;4.422;2023-07-31T08:40:04;19.27;89.66
68943;DHT22;60852;52.190;4.422;2023-07-31T08:42:31;19.30;89.37
68943;DHT22;60852;52.190;4.422;2023-07-31T08:44:57;19.31;88.55
68943;DHT22;60852;52.190;4.422;2023-07-31T08:47:25;19.26;88.64
68943;DHT22;60852;52.190;4.422;2023-07-31T08:49:52;19.36;89.04
68943;DHT22;60852;52.190;4.422;2023-07-31T08:52:18;19.34;88.43
68943;DHT22;60852;52.190;4.422;2023-07-31T08:54:44;19.41;88.35
68943;DHT22;60852;52.190;4.422;2023-07-31T08:57:12;19.27;87.91
68943;DHT22;60852;52.190;4.422;2023-07-31T08:59:39;19.24;88.24
68943;DHT22;60852;52.190;4.422;2023-07-31T09:02:08;19.26;88.08
68943;DHT22;60852;52.190;4.422;2023-07-31T09:04:34;19.39;88.21
68943;DHT22;60852;52.190;4.422;2023-07-31T09:07:02;19.45;87.81
68943;DHT22;60852;52.190;4.422;2023-07-31T09:09:30;19.46;87.71
68943;DHT22;60852;52.190;4.422;2023-07-31T09:11:58;19.50;87.81
68943;DHT22;60852;52.190;4.422;2023-07-31T09:14:25;19.56;87.29
68943;DHT22;60852;52.190;4.422;2023-07-31T09:16:55;19.61;87.25
68943;DHT22;60852;52.190;4.422;2023-07-31T09:19:26;19.51;86.95
68943;DHT22;60852;52.190;4.422;2023-07-31T09:21:51;19.57;87.51
68943;DHT22;60852;52.190;4.422;2023-07-31T09:24:31;19.54;87.09
68943;DHT22;60852;52.190;4.422;2023-07-31T09:26:59;19.68;87.28
68943;DHT22;60852;52.190;4.422;2023-07-31T09:29:26;19.77;86.80
68943;DHT22;60852;52.190;4.422;2023-07-31T09:31:53;19.78;86.76
68943;DHT22;60852;52.190;4.422;2023-07-31T09:34:19;19.84;86.65
68943;DHT22;60852;52.190;4.422;2023-07-31T09:36:49;19.89;86.31
68943;DHT22;60852;52.190;4.422;2023-07-31T09:39:16;19.97;86.03
68943;DHT22;60852;52.190;4.422;2023-07-31T09:41:48;20.08;85.70
68943;DHT22;60852;52.190;4.422;2023-07-31T09:44:18;20.18;85.58
68943;DHT22;60852;52.190;4.422;2023-07-31T09:46:45;20.33;85.08
68943;DHT22;60852;52.190;4.422;2023-07-31T09:49:12;20.32;84.85
68943;DHT22;60852;52.190;4.422;2023-07-31T09:51:41;20.25;84.79
68943;DHT22;60852;52.190;4.422;2023-07-31T09:54:11;20.17;85.00
68943;DHT22;60852;52.190;4.422;2023-07-31T09:56:48;20.08;85.38
68943;DHT22;60852;52.190;4.422;2023-07-31T09:59:16;20.08;85.86
68943;DHT22;60852;52.190;4.422;2023-07-31T10:01:44;20.09;86.00
68943;DHT22;60852;52.190;4.422;2023-07-31T10:04:11;20.09;86.00
68943;DHT22;60852;52.190;4.422;2023-07-31T10:06:37;20.01;85.72
68943;DHT22;60852;52.190;4.422;2023-07-31T10:09:09;19.98;86.04
68943;DHT22;60852;52.190;4.422;2023-07-31T10:11:47;19.98;86.04
68943;DHT22;60852;52.190;4.422;2023-07-31T10:14:19;20.01;86.41
68943;DHT22;60852;52.190;4.422;2023-07-31T10:16:45;20.01;86.27
68943;DHT22;60852;52.190;4.422;2023-07-31T10:19:11;20.09;86.21
68943;DHT22;60852;52.190;4.422;2023-07-31T10:21:37;20.05;86.12
68943;DHT22;60852;52.190;4.422;2023-07-31T10:24:04;20.15;86.11
68943;DHT22;60852;52.190;4.422;2023-07-31T10:26:31;20.19;85.72
68943;DHT22;60852;52.190;4.422;2023-07-31T10:28:58;20.24;85.51
68943;DHT22;60852;52.190;4.422;2023-07-31T10:31:25;20.22;85.25
68943;DHT22;60852;52.190;4.422;2023-07-31T10:33:53;20.29;85.15
68943;DHT22;60852;52.190;4.422;2023-07-31T10:36:20;20.32;85.08
68943;DHT22;60852;52.190;4.422;2023-07-31T10:38:48;20.45;84.78
68943;DHT22;60852;52.190;4.422;2023-07-31T10:41:14;20.46;83.66
68943;DHT22;60852;52.190;4.422;2023-07-31T10:43:40;20.49;83.91
68943;DHT22;60852;52.190;4.422;2023-07-31T10:46:12;20.62;83.98
68943;DHT22;60852;52.190;4.422;2023-07-31T10:48:40;20.49;83.44
68943;DHT22;60852;52.190;4.422;2023-07-31T10:51:11;20.55;83.78
68943;DHT22;60852;52.190;4.422;2023-07-31T10:53:42;20.60;83.40
68943;DHT22;60852;52.190;4.422;2023-07-31T10:56:09;20.46;83.39
68943;DHT22;60852;52.190;4.422;2023-07-31T10:58:38;20.42;83.32
68943;DHT22;60852;52.190;4.422;2023-07-31T11:01:05;20.40;83.53
68943;DHT22;60852;52.190;4.422;2023-07-31T11:06:08;20.40;83.67
68943;DHT22;60852;52.190;4.422;2023-07-31T11:08:35;20.49;83.76
68943;DHT22;60852;52.190;4.422;2023-07-31T11:11:09;20.56;83.53
68943;DHT22;60852;52.190;4.422;2023-07-31T11:13:52;20.62;83.54
68943;DHT22;60852;52.190;4.422;2023-07-31T11:16:20;20.59;83.12
68943;DHT22;60852;52.190;4.422;2023-07-31T11:18:47;20.59;83.19
68943;DHT22;60852;52.190;4.422;2023-07-31T11:21:15;20.55;83.33
68943;DHT22;60852;52.190;4.422;2023-07-31T11:23:41;20.59;83.38
68943;DHT22;60852;52.190;4.422;2023-07-31T11:26:10;20.55;83.44
68943;DHT22;60852;52.190;4.422;2023-07-31T11:28:37;20.60;83.17
68943;DHT22;60852;52.190;4.422;2023-07-31T11:31:04;20.55;83.06
68943;DHT22;60852;52.190;4.422;2023-07-31T11:33:30;20.43;83.33
68943;DHT22;60852;52.190;4.422;2023-07-31T11:35:55;20.50;83.34
68943;DHT22;60852;52.190;4.422;2023-07-31T11:38:30;20.49;82.98
68943;DHT22;60852;52.190;4.422;2023-07-31T11:40:58;20.55;83.00
68943;DHT22;60852;52.190;4.422;2023-07-31T11:43:24;20.53;82.78
68943;DHT22;60852;52.190;4.422;2023-07-31T11:45:52;20.38;83.02
68943;DHT22;60852;52.190;4.422;2023-07-31T11:48:29;20.52;83.18
68943;DHT22;60852;52.190;4.422;2023-07-31T11:50:59;20.50;82.93
68943;DHT22;60852;52.190;4.422;2023-07-31T11:53:38;20.43;82.85
68943;DHT22;60852;52.190;4.422;2023-07-31T11:56:09;20.30;83.19
68943;DHT22;60852;52.190;4.422;2023-07-31T11:58:38;20.25;83.44
68943;DHT22;60852;52.190;4.422;2023-07-31T12:01:04;20.24;83.46
68943;DHT22;60852;52.190;4.422;2023-07-31T12:03:31;20.30;83.53
68943;DHT22;60852;52.190;4.422;2023-07-31T12:05:58;20.42;83.33
68943;DHT22;60852;52.190;4.422;2023-07-31T12:08:25;20.49;83.13
68943;DHT22;60852;52.190;4.422;2023-07-31T12:10:54;20.40;82.56
68943;DHT22;60852;52.190;4.422;2023-07-31T12:13:26;20.38;83.10
68943;DHT22;60852;52.190;4.422;2023-07-31T12:15:58;20.42;82.92
68943;DHT22;60852;52.190;4.422;2023-07-31T12:18:26;20.32;82.85
68943;DHT22;60852;52.190;4.422;2023-07-31T12:20:58;20.43;82.96
68943;DHT22;60852;52.190;4.422;2023-07-31T12:23:27;20.38;82.88
68943;DHT22;60852;52.190;4.422;2023-07-31T12:28:36;20.26;83.89
68943;DHT22;60852;52.190;4.422;2023-07-31T12:31:02;20.32;83.78
68943;DHT22;60852;52.190;4.422;2023-07-31T12:33:32;20.38;83.46
68943;DHT22;60852;52.190;4.422;2023-07-31T12:36:01;20.43;82.97
68943;DHT22;60852;52.190;4.422;2023-07-31T12:38:27;20.53;82.80
68943;DHT22;60852;52.190;4.422;2023-07-31T12:40:52;20.72;82.57
68943;DHT22;60852;52.190;4.422;2023-07-31T12:43:18;20.97;81.85
68943;DHT22;60852;52.190;4.422;2023-07-31T12:45:43;21.07;81.81
68943;DHT22;60852;52.190;4.422;2023-07-31T12:48:09;21.07;80.75
68943;DHT22;60852;52.190;4.422;2023-07-31T12:50:35;21.17;80.57
68943;DHT22;60852;52.190;4.422;2023-07-31T12:53:02;21.15;80.50
68943;DHT22;60852;52.190;4.422;2023-07-31T12:55:28;21.37;79.87
68943;DHT22;60852;52.190;4.422;2023-07-31T12:57:55;21.61;79.62
68943;DHT22;60852;52.190;4.422;2023-07-31T13:00:21;21.46;79.14
68943;DHT22;60852;52.190;4.422;2023-07-31T13:02:47;21.49;79.49
68943;DHT22;60852;52.190;4.422;2023-07-31T13:05:12;21.51;79.63
68943;DHT22;60852;52.190;4.422;2023-07-31T13:07:39;21.42;79.45
68943;DHT22;60852;52.190;4.422;2023-07-31T13:10:05;21.23;80.01
68943;DHT22;60852;52.190;4.422;2023-07-31T13:12:31;21.12;80.78
68943;DHT22;60852;52.190;4.422;2023-07-31T13:14:56;20.93;81.93
68943;DHT22;60852;52.190;4.422;2023-07-31T13:17:22;20.88;82.79
68943;DHT22;60852;52.190;4.422;2023-07-31T13:19:47;20.65;83.47
68943;DHT22;60852;52.190;4.422;2023-07-31T13:22:14;20.59;84.27
68943;DHT22;60852;52.190;4.422;2023-07-31T13:24:39;20.40;84.51
68943;DHT22;60852;52.190;4.422;2023-07-31T13:27:05;20.36;85.19
68943;DHT22;60852;52.190;4.422;2023-07-31T13:29:30;20.32;85.18
68943;DHT22;60852;52.190;4.422;2023-07-31T13:31:57;20.19;85.11
68943;DHT22;60852;52.190;4.422;2023-07-31T13:34:23;20.12;85.50
68943;DHT22;60852;52.190;4.422;2023-07-31T13:36:48;20.08;85.53
68943;DHT22;60852;52.190;4.422;2023-07-31T13:39:14;19.98;85.76
68943;DHT22;60852;52.190;4.422;2023-07-31T13:41:40;20.02;86.12
68943;DHT22;60852;52.190;4.422;2023-07-31T13:44:05;20.04;86.02
68943;DHT22;60852;52.190;4.422;2023-07-31T13:46:31;19.95;85.94
68943;DHT22;60852;52.190;4.422;2023-07-31T13:48:58;19.95;86.12
68943;DHT22;60852;52.190;4.422;2023-07-31T13:51:25;19.99;86.19
68943;DHT22;60852;52.190;4.422;2023-07-31T13:53:50;19.95;85.78
68943;DHT22;60852;52.190;4.422;2023-07-31T13:56:16;19.91;85.80
68943;DHT22;60852;52.190;4.422;2023-07-31T13:58:41;19.85;85.87
68943;DHT22;60852;52.190;4.422;2023-07-31T14:01:07;19.95;85.81
68943;DHT22;60852;52.190;4.422;2023-07-31T14:03:32;19.97;85.74
68943;DHT22;60852;52.190;4.422;2023-07-31T14:05:58;20.05;85.34
68943;DHT22;60852;52.190;4.422;2023-07-31T14:08:23;20.08;85.02
68943;DHT22;60852;52.190;4.422;2023-07-31T14:10:49;20.15;85.14
68943;DHT22;60852;52.190;4.422;2023-07-31T14:13:14;20.22;84.95
68943;DHT22;60852;52.190;4.422;2023-07-31T14:15:41;20.22;84.59
68943;DHT22;60852;52.190;4.422;2023-07-31T14:18:07;20.25;84.51
68943;DHT22;60852;52.190;4.422;2023-07-31T14:20:33;20.19;84.63
68943;DHT22;60852;52.190;4.422;2023-07-31T14:22:58;20.24;84.79
68943;DHT22;60852;52.190;4.422;2023-07-31T14:25:24;20.25;84.59
68943;DHT22;60852;52.190;4.422;2023-07-31T14:27:50;20.21;84.48
68943;DHT22;60852;52.190;4.422;2023-07-31T14:30:15;20.28;84.56
68943;DHT22;60852;52.190;4.422;2023-07-31T14:32:41;20.25;84.46
68943;DHT22;60852;52.190;4.422;2023-07-31T14:35:07;20.32;84.37
68943;DHT22;60852;52.190;4.422;2023-07-31T14:37:40;20.32;84.35
68943;DHT22;60852;52.190;4.422;2023-07-31T14:40:11;20.35;84.06
68943;DHT22;60852;52.190;4.422;2023-07-31T14:42:38;20.33;84.19
68943;DHT22;60852;52.190;4.422;2023-07-31T14:45:05;20.38;84.35
68943;DHT22;60852;52.190;4.422;2023-07-31T14:47:31;20.36;84.12
68943;DHT22;60852;52.190;4.422;2023-07-31T14:49:57;20.35;83.99
68943;DHT22;60852;52.190;4.422;2023-07-31T14:52:23;20.43;84.14
68943;DHT22;60852;52.190;4.422;2023-07-31T14:54:48;20.35;83.99
68943;DHT22;60852;52.190;4.422;2023-07-31T14:57:14;20.29;84.26
68943;DHT22;60852;52.190;4.422;2023-07-31T14:59:39;20.21;84.64
68943;DHT22;60852;52.190;4.422;2023-07-31T15:02:06;20.14;85.05
68943;DHT22;60852;52.190;4.422;2023-07-31T15:04:32;20.04;85.32
68943;DHT22;60852;52.190;4.422;2023-07-31T15:06:57;19.98;85.77
68943;DHT22;60852;52.190;4.422;2023-07-31T15:09:23;19.97;86.09
68943;DHT22;60852;52.190;4.422;2023-07-31T15:11:49;19.89;86.31
68943;DHT22;60852;52.190;4.422;2023-07-31T15:14:14;19.94;86.40
68943;DHT22;60852;52.190;4.422;2023-07-31T15:16:40;19.94;86.29
68943;DHT22;60852;52.190;4.422;2023-07-31T15:19:05;19.91;86.45
68943;DHT22;60852;52.190;4.422;2023-07-31T15:21:30;19.95;86.50
68943;DHT22;60852;52.190;4.422;2023-07-31T15:23:56;20.01;86.45
68943;DHT22;60852;52.190;4.422;2023-07-31T15:26:21;19.88;86.37
68943;DHT22;60852;52.190;4.422;2023-07-31T15:28:49;19.85;86.59
68943;DHT22;60852;52.190;4.422;2023-07-31T15:31:15;19.85;86.59
68943;DHT22;60852;52.190;4.422;2023-07-31T15:33:41;19.87;86.49
68943;DHT22;60852;52.190;4.422;2023-07-31T15:36:06;19.87;86.61
68943;DHT22;60852;52.190;4.422;2023-07-31T15:38:32;19.89;86.63